sensor_id;sensor_type;location;lat;lon;timestamp;P1;durP1;ratioP1;P2;durP2;ratioP2
19664;SDS011;9980;51.020;7.772;2023-05-10T00:00:37;1.87;;;1.77;;
19664;SDS011;9980;51.020;7.772;2023-05-10T00:03:03;1.90;;;1.80;;
19664;SDS011;9980;51.020;7.772;2023-05-10T00:05:30;1.63;;;1.53;;
19664;SDS011;9980;51.020;7.772;2023-05-10T00:07:57;1.80;;;1.70;;
19664;SDS011;9980;51.020;7.772;2023-05-10T00:10:23;1.80;;;1.70;;
19664;SDS011;9980;51.020;7.772;2023-05-10T00:12:49;1.70;;;1.60;;
19664;SDS011;9980;51.020;7.772;2023-05-10T00:15:16;1.73;;;1.63;;
19664;SDS011;9980;51.020;7.772;2023-05-10T00:17:42;1.40;;;1.30;;
19664;SDS011;9980;51.020;7.772;2023-05-10T00:20:08;1.50;;;1.40;;
19664;SDS011;9980;51.020;7.772;2023-05-10T00:22:36;1.97;;;1.70;;
19664;SDS011;9980;51.020;7.772;2023-05-10T00:25:02;1.53;;;1.43;;
19664;SDS011;9980;51.020;7.772;2023-05-10T00:27:28;1.70;;;1.60;;
19664;SDS011;9980;51.020;7.772;2023-05-10T00:29:55;1.50;;;1.40;;
19664;SDS011;9980;51.020;7.772;2023-05-10T00:32:21;1.57;;;1.47;;
19664;SDS011;9980;51.020;7.772;2023-05-10T00:34:47;1.53;;;1.43;;
19664;SDS011;9980;51.020;7.772;2023-05-10T00:37:13;1.73;;;1.63;;
19664;SDS011;9980;51.020;7.772;2023-05-10T00:39:40;1.40;;;1.30;;
19664;SDS011;9980;51.020;7.772;2023-05-10T00:42:06;1.30;;;1.20;;
19664;SDS011;9980;51.020;7.772;2023-05-10T00:44:32;1.50;;;1.40;;
19664;SDS011;9980;51.020;7.772;2023-05-10T00:46:59;1.37;;;1.27;;
19664;SDS011;9980;51.020;7.772;2023-05-10T00:49:27;1.83;;;1.73;;
19664;SDS011;9980;51.020;7.772;2023-05-10T00:51:54;1.27;;;1.20;;
19664;SDS011;9980;51.020;7.772;2023-05-10T00:54:20;1.77;;;1.20;;
19664;SDS011;9980;51.020;7.772;2023-05-10T00:56:47;1.20;;;1.20;;
19664;SDS011;9980;51.020;7.772;2023-05-10T00:59:17;1.17;;;1.17;;
19664;SDS011;9980;51.020;7.772;2023-05-10T01:01:45;1.37;;;1.27;;
19664;SDS011;9980;51.020;7.772;2023-05-10T01:04:13;1.20;;;1.20;;
19664;SDS011;9980;51.020;7.772;2023-05-10T01:06:41;1.40;;;1.30;;
19664;SDS011;9980;51.020;7.772;2023-05-10T01:09:07;1.20;;;1.20;;
19664;SDS011;9980;51.020;7.772;2023-05-10T01:11:34;1.10;;;1.10;;
19664;SDS011;9980;51.020;7.772;2023-05-10T01:14:03;1.30;;;1.30;;
19664;SDS011;9980;51.020;7.772;2023-05-10T01:16:35;1.23;;;1.23;;
19664;SDS011;9980;51.020;7.772;2023-05-10T01:19:06;1.47;;;1.37;;
19664;SDS011;9980;51.020;7.772;2023-05-10T01:21:49;1.40;;;1.30;;
19664;SDS011;9980;51.020;7.772;2023-05-10T01:24:51;3.27;;;1.60;;
19664;SDS011;9980;51.020;7.772;2023-05-10T01:33:26;1.50;;;1.40;;
19664;SDS011;9980;51.020;7.772;2023-05-10T01:38:57;1.73;;;1.63;;
19664;SDS011;9980;51.020;7.772;2023-05-10T01:47:38;1.70;;;1.60;;
19664;SDS011;9980;51.020;7.772;2023-05-10T01:50:15;1.83;;;1.73;;
19664;SDS011;9980;51.020;7.772;2023-05-10T01:52:51;2.17;;;2.00;;
19664;SDS011;9980;51.020;7.772;2023-05-10T01:55:22;2.27;;;2.07;;
19664;SDS011;9980;51.020;7.772;2023-05-10T02:00:47;2.27;;;2.17;;
19664;SDS011;9980;51.020;7.772;2023-05-10T02:03:18;2.80;;;2.60;;
19664;SDS011;9980;51.020;7.772;2023-05-10T02:05:49;2.70;;;2.50;;
19664;SDS011;9980;51.020;7.772;2023-05-10T02:08:20;2.83;;;2.63;;
19664;SDS011;9980;51.020;7.772;2023-05-10T02:10:50;3.20;;;2.87;;
19664;SDS011;9980;51.020;7.772;2023-05-10T02:13:19;3.00;;;2.80;;
19664;SDS011;9980;51.020;7.772;2023-05-10T02:15:49;3.33;;;3.10;;
19664;SDS011;9980;51.020;7.772;2023-05-10T02:18:19;3.87;;;3.57;;
19664;SDS011;9980;51.020;7.772;2023-05-10T02:20:49;3.20;;;3.00;;
19664;SDS011;9980;51.020;7.772;2023-05-10T02:23:17;2.90;;;2.70;;
19664;SDS011;9980;51.020;7.772;2023-05-10T02:25:45;2.63;;;2.43;;
19664;SDS011;9980;51.020;7.772;2023-05-10T02:28:15;2.53;;;2.37;;
19664;SDS011;9980;51.020;7.772;2023-05-10T02:30:43;2.40;;;2.10;;
19664;SDS011;9980;51.020;7.772;2023-05-10T02:33:11;2.30;;;2.20;;
19664;SDS011;9980;51.020;7.772;2023-05-10T02:35:38;2.43;;;2.33;;
19664;SDS011;9980;51.020;7.772;2023-05-10T02:38:04;3.47;;;3.17;;
19664;SDS011;9980;51.020;7.772;2023-05-10T02:40:33;3.00;;;2.80;;
19664;SDS011;9980;51.020;7.772;2023-05-10T02:43:01;3.00;;;2.80;;
19664;SDS011;9980;51.020;7.772;2023-05-10T02:45:30;3.40;;;3.20;;
19664;SDS011;9980;51.020;7.772;2023-05-10T02:48:01;4.53;;;3.77;;
19664;SDS011;9980;51.020;7.772;2023-05-10T02:50:28;3.97;;;3.67;;
19664;SDS011;9980;51.020;7.772;2023-05-10T02:53:03;4.00;;;3.70;;
19664;SDS011;9980;51.020;7.772;2023-05-10T02:55:47;4.47;;;4.10;;
19664;SDS011;9980;51.020;7.772;2023-05-10T02:58:18;4.47;;;4.17;;
19664;SDS011;9980;51.020;7.772;2023-05-10T03:00:45;5.00;;;4.60;;
19664;SDS011;9980;51.020;7.772;2023-05-10T03:03:12;5.47;;;4.90;;
19664;SDS011;9980;51.020;7.772;2023-05-10T03:05:38;4.90;;;4.50;;
19664;SDS011;9980;51.020;7.772;2023-05-10T03:08:05;4.40;;;4.10;;
19664;SDS011;9980;51.020;7.772;2023-05-10T03:10:36;4.87;;;4.47;;
19664;SDS011;9980;51.020;7.772;2023-05-10T03:13:16;3.97;;;3.67;;
19664;SDS011;9980;51.020;7.772;2023-05-10T03:16:10;3.67;;;3.37;;
19664;SDS011;9980;51.020;7.772;2023-05-10T03:18:44;3.23;;;3.03;;
19664;SDS011;9980;51.020;7.772;2023-05-10T03:21:41;3.73;;;3.43;;
19664;SDS011;9980;51.020;7.772;2023-05-10T03:24:15;5.03;;;4.57;;
19664;SDS011;9980;51.020;7.772;2023-05-10T03:26:46;5.13;;;4.40;;
19664;SDS011;9980;51.020;7.772;2023-05-10T03:29:16;5.63;;;5.13;;
19664;SDS011;9980;51.020;7.772;2023-05-10T03:31:44;6.33;;;5.73;;
19664;SDS011;9980;51.020;7.772;2023-05-10T03:34:10;7.57;;;5.90;;
19664;SDS011;9980;51.020;7.772;2023-05-10T03:36:37;6.17;;;5.67;;
19664;SDS011;9980;51.020;7.772;2023-05-10T03:39:03;5.93;;;5.43;;
19664;SDS011;9980;51.020;7.772;2023-05-10T03:41:30;7.17;;;6.47;;
19664;SDS011;9980;51.020;7.772;2023-05-10T03:43:56;6.80;;;6.20;;
19664;SDS011;9980;51.020;7.772;2023-05-10T03:46:22;6.40;;;5.90;;
19664;SDS011;9980;51.020;7.772;2023-05-10T03:48:49;7.20;;;6.50;;
19664;SDS011;9980;51.020;7.772;2023-05-10T03:51:15;7.27;;;6.57;;
19664;SDS011;9980;51.020;7.772;2023-05-10T03:53:41;6.67;;;6.07;;
19664;SDS011;9980;51.020;7.772;2023-05-10T03:56:08;6.33;;;5.73;;
19664;SDS011;9980;51.020;7.772;2023-05-10T03:58:35;6.33;;;5.73;;
19664;SDS011;9980;51.020;7.772;2023-05-10T04:01:01;5.03;;;4.63;;
19664;SDS011;9980;51.020;7.772;2023-05-10T04:03:27;5.07;;;4.63;;
19664;SDS011;9980;51.020;7.772;2023-05-10T04:06:00;4.23;;;3.93;;
19664;SDS011;9980;51.020;7.772;2023-05-10T04:08:28;4.67;;;4.27;;
19664;SDS011;9980;51.020;7.772;2023-05-10T04:11:04;4.53;;;4.17;;
19664;SDS011;9980;51.020;7.772;2023-05-10T04:13:35;4.37;;;4.07;;
19664;SDS011;9980;51.020;7.772;2023-05-10T04:16:02;3.80;;;3.50;;
19664;SDS011;9980;51.020;7.772;2023-05-10T04:18:29;3.67;;;3.37;;
19664;SDS011;9980;51.020;7.772;2023-05-10T04:20:56;3.90;;;3.60;;
19664;SDS011;9980;51.020;7.772;2023-05-10T04:23:23;3.80;;;3.50;;
19664;SDS011;9980;51.020;7.772;2023-05-10T04:25:49;3.77;;;3.50;;
19664;SDS011;9980;51.020;7.772;2023-05-10T04:28:15;3.97;;;3.67;;
19664;SDS011;9980;51.020;7.772;2023-05-10T04:30:41;4.10;;;3.73;;
19664;SDS011;9980;51.020;7.772;2023-05-10T04:33:08;4.07;;;3.60;;
19664;SDS011;9980;51.020;7.772;2023-05-10T04:35:34;3.83;;;3.53;;
19664;SDS011;9980;51.020;7.772;2023-05-10T04:38:01;4.40;;;4.00;;
19664;SDS011;9980;51.020;7.772;2023-05-10T04:40:27;4.57;;;4.07;;
19664;SDS011;9980;51.020;7.772;2023-05-10T04:42:53;4.20;;;3.90;;
19664;SDS011;9980;51.020;7.772;2023-05-10T04:45:19;4.50;;;4.10;;
19664;SDS011;9980;51.020;7.772;2023-05-10T04:47:46;4.60;;;4.20;;
19664;SDS011;9980;51.020;7.772;2023-05-10T04:50:12;4.63;;;4.30;;
19664;SDS011;9980;51.020;7.772;2023-05-10T04:52:38;5.20;;;4.80;;
19664;SDS011;9980;51.020;7.772;2023-05-10T04:55:04;5.30;;;4.80;;
19664;SDS011;9980;51.020;7.772;2023-05-10T04:57:33;6.40;;;5.80;;
19664;SDS011;9980;51.020;7.772;2023-05-10T04:59:59;7.23;;;6.53;;
19664;SDS011;9980;51.020;7.772;2023-05-10T05:02:26;6.43;;;5.83;;
19664;SDS011;9980;51.020;7.772;2023-05-10T05:04:52;7.03;;;5.93;;
19664;SDS011;9980;51.020;7.772;2023-05-10T05:07:21;6.17;;;5.20;;
19664;SDS011;9980;51.020;7.772;2023-05-10T05:09:47;5.60;;;5.10;;
19664;SDS011;9980;51.020;7.772;2023-05-10T05:12:14;8.53;;;5.87;;
19664;SDS011;9980;51.020;7.772;2023-05-10T05:14:40;6.03;;;5.50;;
19664;SDS011;9980;51.020;7.772;2023-05-10T05:17:07;7.70;;;5.87;;
19664;SDS011;9980;51.020;7.772;2023-05-10T05:19:33;6.33;;;5.73;;
19664;SDS011;9980;51.020;7.772;2023-05-10T05:21:59;8.23;;;6.67;;
19664;SDS011;9980;51.020;7.772;2023-05-10T05:24:25;7.83;;;6.60;;
19664;SDS011;9980;51.020;7.772;2023-05-10T05:26:52;7.17;;;6.47;;
19664;SDS011;9980;51.020;7.772;2023-05-10T05:29:18;7.07;;;6.27;;
19664;SDS011;9980;51.020;7.772;2023-05-10T05:31:44;7.90;;;7.10;;
19664;SDS011;9980;51.020;7.772;2023-05-10T05:34:10;8.00;;;7.20;;
19664;SDS011;9980;51.020;7.772;2023-05-10T05:36:37;7.57;;;6.87;;
19664;SDS011;9980;51.020;7.772;2023-05-10T05:39:06;8.50;;;7.67;;
19664;SDS011;9980;51.020;7.772;2023-05-10T05:41:33;7.67;;;6.97;;
19664;SDS011;9980;51.020;7.772;2023-05-10T05:43:59;8.57;;;7.77;;
19664;SDS011;9980;51.020;7.772;2023-05-10T05:46:25;8.97;;;8.03;;
19664;SDS011;9980;51.020;7.772;2023-05-10T05:48:52;8.80;;;7.83;;
19664;SDS011;9980;51.020;7.772;2023-05-10T05:51:18;8.03;;;7.20;;
19664;SDS011;9980;51.020;7.772;2023-05-10T05:53:44;9.10;;;7.90;;
19664;SDS011;9980;51.020;7.772;2023-05-10T05:56:10;8.37;;;7.53;;
19664;SDS011;9980;51.020;7.772;2023-05-10T05:58:36;8.93;;;7.67;;
19664;SDS011;9980;51.020;7.772;2023-05-10T06:01:03;7.63;;;6.73;;
19664;SDS011;9980;51.020;7.772;2023-05-10T06:03:29;10.00;;;7.73;;
19664;SDS011;9980;51.020;7.772;2023-05-10T06:05:56;8.07;;;7.27;;
19664;SDS011;9980;51.020;7.772;2023-05-10T06:08:22;9.23;;;7.33;;
19664;SDS011;9980;51.020;7.772;2023-05-10T06:10:48;8.50;;;7.63;;
19664;SDS011;9980;51.020;7.772;2023-05-10T06:13:14;8.97;;;7.40;;
19664;SDS011;9980;51.020;7.772;2023-05-10T06:15:41;9.33;;;6.83;;
19664;SDS011;9980;51.020;7.772;2023-05-10T06:18:07;12.13;;;7.80;;
19664;SDS011;9980;51.020;7.772;2023-05-10T06:20:33;7.90;;;6.77;;
19664;SDS011;9980;51.020;7.772;2023-05-10T06:22:59;7.60;;;6.80;;
19664;SDS011;9980;51.020;7.772;2023-05-10T06:25:26;10.63;;;6.60;;
19664;SDS011;9980;51.020;7.772;2023-05-10T06:27:52;9.93;;;6.83;;
19664;SDS011;9980;51.020;7.772;2023-05-10T06:30:23;9.27;;;7.33;;
19664;SDS011;9980;51.020;7.772;2023-05-10T06:32:52;9.33;;;7.37;;
19664;SDS011;9980;51.020;7.772;2023-05-10T06:35:19;7.10;;;6.30;;
19664;SDS011;9980;51.020;7.772;2023-05-10T06:37:46;9.27;;;7.40;;
19664;SDS011;9980;51.020;7.772;2023-05-10T06:40:12;7.63;;;6.50;;
19664;SDS011;9980;51.020;7.772;2023-05-10T06:42:39;10.40;;;7.10;;
19664;SDS011;9980;51.020;7.772;2023-05-10T06:45:05;7.07;;;5.97;;
19664;SDS011;9980;51.020;7.772;2023-05-10T06:47:32;10.20;;;7.20;;
19664;SDS011;9980;51.020;7.772;2023-05-10T06:50:00;7.47;;;6.63;;
19664;SDS011;9980;51.020;7.772;2023-05-10T06:52:34;8.83;;;6.93;;
19664;SDS011;9980;51.020;7.772;2023-05-10T06:55:01;9.67;;;7.07;;
19664;SDS011;9980;51.020;7.772;2023-05-10T06:57:29;9.00;;;6.47;;
19664;SDS011;9980;51.020;7.772;2023-05-10T07:00:00;7.80;;;6.90;;
19664;SDS011;9980;51.020;7.772;2023-05-10T07:02:29;7.70;;;6.70;;
19664;SDS011;9980;51.020;7.772;2023-05-10T07:04:56;7.00;;;6.30;;
19664;SDS011;9980;51.020;7.772;2023-05-10T07:07:26;8.97;;;7.87;;
19664;SDS011;9980;51.020;7.772;2023-05-10T07:09:52;8.77;;;7.60;;
19664;SDS011;9980;51.020;7.772;2023-05-10T07:12:18;8.17;;;6.77;;
19664;SDS011;9980;51.020;7.772;2023-05-10T07:14:47;9.73;;;8.03;;
19664;SDS011;9980;51.020;7.772;2023-05-10T07:17:14;9.37;;;8.00;;
19664;SDS011;9980;51.020;7.772;2023-05-10T07:19:40;8.87;;;7.70;;
19664;SDS011;9980;51.020;7.772;2023-05-10T07:22:06;8.77;;;7.27;;
19664;SDS011;9980;51.020;7.772;2023-05-10T07:24:33;7.50;;;6.70;;
19664;SDS011;9980;51.020;7.772;2023-05-10T07:26:59;10.07;;;6.57;;
19664;SDS011;9980;51.020;7.772;2023-05-10T07:29:26;11.03;;;9.37;;
19664;SDS011;9980;51.020;7.772;2023-05-10T07:31:52;12.23;;;10.87;;
19664;SDS011;9980;51.020;7.772;2023-05-10T07:34:20;16.73;;;12.57;;
19664;SDS011;9980;51.020;7.772;2023-05-10T07:36:46;16.17;;;12.73;;
19664;SDS011;9980;51.020;7.772;2023-05-10T07:39:13;17.30;;;13.20;;
19664;SDS011;9980;51.020;7.772;2023-05-10T07:41:51;18.83;;;12.97;;
19664;SDS011;9980;51.020;7.772;2023-05-10T07:44:17;17.33;;;13.97;;
19664;SDS011;9980;51.020;7.772;2023-05-10T07:46:46;18.33;;;13.83;;
19664;SDS011;9980;51.020;7.772;2023-05-10T07:49:13;16.50;;;13.97;;
19664;SDS011;9980;51.020;7.772;2023-05-10T07:51:39;18.67;;;14.30;;
19664;SDS011;9980;51.020;7.772;2023-05-10T07:54:05;16.43;;;13.60;;
19664;SDS011;9980;51.020;7.772;2023-05-10T07:56:32;19.00;;;14.57;;
19664;SDS011;9980;51.020;7.772;2023-05-10T07:58:59;23.77;;;15.30;;
19664;SDS011;9980;51.020;7.772;2023-05-10T08:01:26;18.87;;;14.50;;
19664;SDS011;9980;51.020;7.772;2023-05-10T08:03:57;17.57;;;14.17;;
19664;SDS011;9980;51.020;7.772;2023-05-10T08:06:24;19.70;;;15.53;;
19664;SDS011;9980;51.020;7.772;2023-05-10T08:08:52;17.53;;;14.03;;
19664;SDS011;9980;51.020;7.772;2023-05-10T08:11:20;21.90;;;15.40;;
19664;SDS011;9980;51.020;7.772;2023-05-10T08:13:47;17.60;;;14.07;;
19664;SDS011;9980;51.020;7.772;2023-05-10T08:16:15;17.33;;;14.10;;
19664;SDS011;9980;51.020;7.772;2023-05-10T08:18:43;21.47;;;15.17;;
19664;SDS011;9980;51.020;7.772;2023-05-10T08:21:12;18.20;;;14.67;;
19664;SDS011;9980;51.020;7.772;2023-05-10T08:23:39;18.33;;;15.17;;
19664;SDS011;9980;51.020;7.772;2023-05-10T08:26:06;17.57;;;14.60;;
19664;SDS011;9980;51.020;7.772;2023-05-10T08:28:32;16.20;;;14.50;;
19664;SDS011;9980;51.020;7.772;2023-05-10T08:30:59;18.80;;;14.20;;
19664;SDS011;9980;51.020;7.772;2023-05-10T08:33:25;16.43;;;14.63;;
19664;SDS011;9980;51.020;7.772;2023-05-10T08:35:51;18.80;;;15.93;;
19664;SDS011;9980;51.020;7.772;2023-05-10T08:38:18;19.37;;;15.30;;
19664;SDS011;9980;51.020;7.772;2023-05-10T08:40:44;18.77;;;15.47;;
19664;SDS011;9980;51.020;7.772;2023-05-10T08:43:14;17.80;;;14.93;;
19664;SDS011;9980;51.020;7.772;2023-05-10T08:45:42;20.63;;;15.67;;
19664;SDS011;9980;51.020;7.772;2023-05-10T08:48:13;17.10;;;15.03;;
19664;SDS011;9980;51.020;7.772;2023-05-10T08:50:41;19.07;;;16.07;;
19664;SDS011;9980;51.020;7.772;2023-05-10T08:53:10;19.50;;;15.83;;
19664;SDS011;9980;51.020;7.772;2023-05-10T08:55:39;18.83;;;15.40;;
19664;SDS011;9980;51.020;7.772;2023-05-10T08:58:08;19.60;;;15.80;;
19664;SDS011;9980;51.020;7.772;2023-05-10T09:00:35;18.73;;;15.83;;
19664;SDS011;9980;51.020;7.772;2023-05-10T09:03:05;19.20;;;15.60;;
19664;SDS011;9980;51.020;7.772;2023-05-10T09:05:32;20.30;;;16.00;;
19664;SDS011;9980;51.020;7.772;2023-05-10T09:07:58;23.40;;;17.10;;
19664;SDS011;9980;51.020;7.772;2023-05-10T09:10:26;19.50;;;16.10;;
19664;SDS011;9980;51.020;7.772;2023-05-10T09:12:55;18.80;;;15.10;;
19664;SDS011;9980;51.020;7.772;2023-05-10T09:15:24;16.40;;;13.80;;
19664;SDS011;9980;51.020;7.772;2023-05-10T09:17:51;17.50;;;14.03;;
19664;SDS011;9980;51.020;7.772;2023-05-10T09:20:18;15.83;;;12.70;;
19664;SDS011;9980;51.020;7.772;2023-05-10T09:22:44;18.50;;;12.73;;
19664;SDS011;9980;51.020;7.772;2023-05-10T09:25:14;16.27;;;12.97;;
19664;SDS011;9980;51.020;7.772;2023-05-10T09:27:44;15.00;;;11.40;;
19664;SDS011;9980;51.020;7.772;2023-05-10T09:30:15;14.63;;;11.53;;
19664;SDS011;9980;51.020;7.772;2023-05-10T09:32:54;13.13;;;11.00;;
19664;SDS011;9980;51.020;7.772;2023-05-10T09:35:23;12.53;;;11.20;;
19664;SDS011;9980;51.020;7.772;2023-05-10T09:37:55;13.83;;;10.67;;
19664;SDS011;9980;51.020;7.772;2023-05-10T09:40:25;12.87;;;10.80;;
19664;SDS011;9980;51.020;7.772;2023-05-10T09:43:05;11.57;;;9.40;;
19664;SDS011;9980;51.020;7.772;2023-05-10T09:45:33;10.97;;;9.30;;
19664;SDS011;9980;51.020;7.772;2023-05-10T09:48:04;9.20;;;8.30;;
19664;SDS011;9980;51.020;7.772;2023-05-10T09:50:31;9.10;;;7.87;;
19664;SDS011;9980;51.020;7.772;2023-05-10T09:52:58;9.33;;;8.33;;
19664;SDS011;9980;51.020;7.772;2023-05-10T09:55:42;8.43;;;7.47;;
19664;SDS011;9980;51.020;7.772;2023-05-10T09:58:12;8.70;;;7.80;;
19664;SDS011;9980;51.020;7.772;2023-05-10T10:00:40;7.77;;;6.77;;
19664;SDS011;9980;51.020;7.772;2023-05-10T10:03:16;6.73;;;6.10;;
19664;SDS011;9980;51.020;7.772;2023-05-10T10:05:46;8.07;;;5.97;;
19664;SDS011;9980;51.020;7.772;2023-05-10T10:08:14;5.97;;;5.13;;
19664;SDS011;9980;51.020;7.772;2023-05-10T10:10:41;6.57;;;5.60;;
19664;SDS011;9980;51.020;7.772;2023-05-10T10:13:09;5.67;;;5.03;;
19664;SDS011;9980;51.020;7.772;2023-05-10T10:15:36;5.33;;;4.50;;
19664;SDS011;9980;51.020;7.772;2023-05-10T10:18:03;5.23;;;4.77;;
19664;SDS011;9980;51.020;7.772;2023-05-10T10:20:31;5.47;;;4.87;;
19664;SDS011;9980;51.020;7.772;2023-05-10T10:22:57;7.33;;;5.47;;
19664;SDS011;9980;51.020;7.772;2023-05-10T10:25:23;5.63;;;5.00;;
19664;SDS011;9980;51.020;7.772;2023-05-10T10:33:13;6.87;;;5.90;;
19664;SDS011;9980;51.020;7.772;2023-05-10T10:36:17;5.20;;;4.70;;
19664;SDS011;9980;51.020;7.772;2023-05-10T10:49:51;3.33;;;2.80;;
19664;SDS011;9980;51.020;7.772;2023-05-10T10:52:32;3.93;;;3.27;;
19664;SDS011;9980;51.020;7.772;2023-05-10T10:55:14;3.70;;;3.40;;
19664;SDS011;9980;51.020;7.772;2023-05-10T10:57:46;4.57;;;3.23;;
19664;SDS011;9980;51.020;7.772;2023-05-10T11:00:19;4.83;;;3.13;;
19664;SDS011;9980;51.020;7.772;2023-05-10T11:02:56;3.97;;;3.43;;
19664;SDS011;9980;51.020;7.772;2023-05-10T11:05:39;3.40;;;3.10;;
19664;SDS011;9980;51.020;7.772;2023-05-10T11:08:25;3.63;;;2.33;;
19664;SDS011;9980;51.020;7.772;2023-05-10T11:13:29;2.23;;;1.50;;
19664;SDS011;9980;51.020;7.772;2023-05-10T11:16:11;5.20;;;1.90;;
19664;SDS011;9980;51.020;7.772;2023-05-10T11:21:30;5.43;;;2.40;;
19664;SDS011;9980;51.020;7.772;2023-05-10T11:24:00;5.13;;;2.63;;
19664;SDS011;9980;51.020;7.772;2023-05-10T11:26:37;3.70;;;3.40;;
19664;SDS011;9980;51.020;7.772;2023-05-10T11:29:04;4.20;;;3.40;;
19664;SDS011;9980;51.020;7.772;2023-05-10T11:31:30;4.30;;;3.90;;
19664;SDS011;9980;51.020;7.772;2023-05-10T11:33:57;4.97;;;4.10;;
19664;SDS011;9980;51.020;7.772;2023-05-10T11:36:27;4.40;;;4.00;;
19664;SDS011;9980;51.020;7.772;2023-05-10T11:38:58;5.23;;;4.23;;
19664;SDS011;9980;51.020;7.772;2023-05-10T11:41:25;8.67;;;4.30;;
19664;SDS011;9980;51.020;7.772;2023-05-10T11:43:55;5.37;;;3.97;;
19664;SDS011;9980;51.020;7.772;2023-05-10T11:46:23;4.70;;;4.30;;
19664;SDS011;9980;51.020;7.772;2023-05-10T11:48:59;4.07;;;3.67;;
19664;SDS011;9980;51.020;7.772;2023-05-10T11:51:27;4.93;;;4.43;;
19664;SDS011;9980;51.020;7.772;2023-05-10T11:53:54;5.40;;;4.57;;
19664;SDS011;9980;51.020;7.772;2023-05-10T11:56:22;5.77;;;5.27;;
19664;SDS011;9980;51.020;7.772;2023-05-10T11:58:53;6.97;;;6.00;;
19664;SDS011;9980;51.020;7.772;2023-05-10T12:01:24;7.90;;;6.03;;
19664;SDS011;9980;51.020;7.772;2023-05-10T12:03:56;8.57;;;6.80;;
19664;SDS011;9980;51.020;7.772;2023-05-10T12:06:27;8.63;;;7.23;;
19664;SDS011;9980;51.020;7.772;2023-05-10T12:08:56;9.90;;;8.83;;
19664;SDS011;9980;51.020;7.772;2023-05-10T12:11:24;8.57;;;7.77;;
19664;SDS011;9980;51.020;7.772;2023-05-10T12:13:53;10.93;;;8.47;;
19664;SDS011;9980;51.020;7.772;2023-05-10T12:16:22;9.67;;;8.43;;
19664;SDS011;9980;51.020;7.772;2023-05-10T12:18:55;9.90;;;8.90;;
19664;SDS011;9980;51.020;7.772;2023-05-10T12:21:24;8.63;;;7.73;;
19664;SDS011;9980;51.020;7.772;2023-05-10T12:23:54;8.77;;;7.97;;
19664;SDS011;9980;51.020;7.772;2023-05-10T12:26:25;9.33;;;8.43;;
19664;SDS011;9980;51.020;7.772;2023-05-10T12:28:53;9.73;;;7.50;;
19664;SDS011;9980;51.020;7.772;2023-05-10T12:31:20;8.23;;;7.37;;
19664;SDS011;9980;51.020;7.772;2023-05-10T12:33:47;10.90;;;8.57;;
19664;SDS011;9980;51.020;7.772;2023-05-10T12:36:15;11.03;;;9.53;;
19664;SDS011;9980;51.020;7.772;2023-05-10T12:38:45;9.90;;;8.87;;
19664;SDS011;9980;51.020;7.772;2023-05-10T12:41:15;12.07;;;9.83;;
19664;SDS011;9980;51.020;7.772;2023-05-10T12:43:43;12.47;;;10.67;;
19664;SDS011;9980;51.020;7.772;2023-05-10T12:46:14;12.67;;;10.77;;
19664;SDS011;9980;51.020;7.772;2023-05-10T12:48:43;13.50;;;11.27;;
19664;SDS011;9980;51.020;7.772;2023-05-10T12:51:11;12.80;;;10.83;;
19664;SDS011;9980;51.020;7.772;2023-05-10T12:53:40;14.00;;;11.13;;
19664;SDS011;9980;51.020;7.772;2023-05-10T12:56:11;13.17;;;11.30;;
19664;SDS011;9980;51.020;7.772;2023-05-10T12:58:38;15.33;;;11.90;;
19664;SDS011;9980;51.020;7.772;2023-05-10T13:01:04;15.47;;;12.10;;
19664;SDS011;9980;51.020;7.772;2023-05-10T13:03:31;16.43;;;11.23;;
19664;SDS011;9980;51.020;7.772;2023-05-10T13:05:58;13.70;;;11.67;;
19664;SDS011;9980;51.020;7.772;2023-05-10T13:08:24;15.07;;;12.10;;
19664;SDS011;9980;51.020;7.772;2023-05-10T13:10:51;14.67;;;12.23;;
19664;SDS011;9980;51.020;7.772;2023-05-10T13:13:17;13.80;;;11.73;;
19664;SDS011;9980;51.020;7.772;2023-05-10T13:15:43;16.03;;;12.07;;
19664;SDS011;9980;51.020;7.772;2023-05-10T13:18:09;16.37;;;11.37;;
19664;SDS011;9980;51.020;7.772;2023-05-10T13:20:36;14.93;;;11.97;;
19664;SDS011;9980;51.020;7.772;2023-05-10T13:23:02;13.27;;;11.37;;
19664;SDS011;9980;51.020;7.772;2023-05-10T13:25:29;13.93;;;11.60;;
19664;SDS011;9980;51.020;7.772;2023-05-10T13:27:55;18.87;;;12.17;;
19664;SDS011;9980;51.020;7.772;2023-05-10T13:30:21;14.43;;;11.07;;
19664;SDS011;9980;51.020;7.772;2023-05-10T13:32:49;13.20;;;10.77;;
19664;SDS011;9980;51.020;7.772;2023-05-10T13:35:15;14.40;;;11.53;;
19664;SDS011;9980;51.020;7.772;2023-05-10T13:37:41;12.90;;;10.73;;
19664;SDS011;9980;51.020;7.772;2023-05-10T13:40:08;12.97;;;11.00;;
19664;SDS011;9980;51.020;7.772;2023-05-10T13:42:35;19.43;;;11.03;;
19664;SDS011;9980;51.020;7.772;2023-05-10T13:45:01;12.73;;;10.53;;
19664;SDS011;9980;51.020;7.772;2023-05-10T13:47:27;13.53;;;11.23;;
19664;SDS011;9980;51.020;7.772;2023-05-10T13:49:54;13.63;;;11.33;;
19664;SDS011;9980;51.020;7.772;2023-05-10T13:52:20;12.43;;;10.87;;
19664;SDS011;9980;51.020;7.772;2023-05-10T13:54:47;14.97;;;11.47;;
19664;SDS011;9980;51.020;7.772;2023-05-10T13:57:13;13.67;;;10.20;;
19664;SDS011;9980;51.020;7.772;2023-05-10T13:59:42;13.27;;;10.70;;
19664;SDS011;9980;51.020;7.772;2023-05-10T14:02:08;18.90;;;11.43;;
19664;SDS011;9980;51.020;7.772;2023-05-10T14:04:34;14.23;;;11.10;;
19664;SDS011;9980;51.020;7.772;2023-05-10T14:07:01;12.90;;;10.47;;
19664;SDS011;9980;51.020;7.772;2023-05-10T14:09:27;13.37;;;11.20;;
19664;SDS011;9980;51.020;7.772;2023-05-10T14:11:53;15.20;;;11.77;;
19664;SDS011;9980;51.020;7.772;2023-05-10T14:14:20;13.73;;;10.70;;
19664;SDS011;9980;51.020;7.772;2023-05-10T14:16:46;13.77;;;10.50;;
19664;SDS011;9980;51.020;7.772;2023-05-10T14:19:12;13.70;;;11.07;;
19664;SDS011;9980;51.020;7.772;2023-05-10T14:21:39;12.43;;;11.13;;
19664;SDS011;9980;51.020;7.772;2023-05-10T14:24:05;12.47;;;11.17;;
19664;SDS011;9980;51.020;7.772;2023-05-10T14:26:32;15.43;;;11.17;;
19664;SDS011;9980;51.020;7.772;2023-05-10T14:29:00;13.93;;;10.90;;
19664;SDS011;9980;51.020;7.772;2023-05-10T14:31:26;13.97;;;10.80;;
19664;SDS011;9980;51.020;7.772;2023-05-10T14:33:52;13.00;;;10.03;;
19664;SDS011;9980;51.020;7.772;2023-05-10T14:36:19;12.37;;;10.57;;
19664;SDS011;9980;51.020;7.772;2023-05-10T14:38:45;12.27;;;10.80;;
19664;SDS011;9980;51.020;7.772;2023-05-10T14:41:11;16.13;;;11.13;;
19664;SDS011;9980;51.020;7.772;2023-05-10T14:43:40;14.47;;;10.67;;
19664;SDS011;9980;51.020;7.772;2023-05-10T14:46:07;13.27;;;10.63;;
19664;SDS011;9980;51.020;7.772;2023-05-10T14:48:34;12.83;;;10.97;;
19664;SDS011;9980;51.020;7.772;2023-05-10T14:51:00;13.37;;;10.57;;
19664;SDS011;9980;51.020;7.772;2023-05-10T14:53:27;13.70;;;11.30;;
19664;SDS011;9980;51.020;7.772;2023-05-10T14:55:53;11.77;;;10.57;;
19664;SDS011;9980;51.020;7.772;2023-05-10T14:58:23;13.07;;;10.70;;
19664;SDS011;9980;51.020;7.772;2023-05-10T15:00:49;11.87;;;10.63;;
19664;SDS011;9980;51.020;7.772;2023-05-10T15:03:16;12.80;;;10.00;;
19664;SDS011;9980;51.020;7.772;2023-05-10T15:05:43;15.93;;;10.57;;
19664;SDS011;9980;51.020;7.772;2023-05-10T15:08:09;13.43;;;10.23;;
19664;SDS011;9980;51.020;7.772;2023-05-10T15:10:35;13.70;;;10.43;;
19664;SDS011;9980;51.020;7.772;2023-05-10T15:13:03;13.80;;;9.73;;
19664;SDS011;9980;51.020;7.772;2023-05-10T15:15:30;14.40;;;10.70;;
19664;SDS011;9980;51.020;7.772;2023-05-10T15:17:56;13.87;;;10.13;;
19664;SDS011;9980;51.020;7.772;2023-05-10T15:20:22;14.63;;;10.43;;
19664;SDS011;9980;51.020;7.772;2023-05-10T15:22:49;14.50;;;10.53;;
19664;SDS011;9980;51.020;7.772;2023-05-10T15:25:15;17.43;;;11.07;;
19664;SDS011;9980;51.020;7.772;2023-05-10T15:27:42;14.17;;;10.53;;
19664;SDS011;9980;51.020;7.772;2023-05-10T15:30:09;12.03;;;10.37;;
19664;SDS011;9980;51.020;7.772;2023-05-10T15:32:36;14.40;;;10.77;;
19664;SDS011;9980;51.020;7.772;2023-05-10T15:35:03;13.87;;;9.57;;
19664;SDS011;9980;51.020;7.772;2023-05-10T15:37:29;13.13;;;9.83;;